createdAt,value
2022-11-30T00:00:50.389Z,10.99
2022-11-30T00:03:17.019Z,10.74
2022-11-30T00:05:43.506Z,10.91
2022-11-30T00:08:09.931Z,10.79
2022-11-30T00:10:38.773Z,10.72
2022-11-30T00:13:05.208Z,10.88
2022-11-30T00:15:32.112Z,10.61
2022-11-30T00:17:59.003Z,10.71
2022-11-30T00:20:25.803Z,10.58
2022-11-30T00:22:52.220Z,10.75
2022-11-30T00:25:18.774Z,10.44
2022-11-30T00:27:45.175Z,10.70
2022-11-30T00:30:12.303Z,10.15
2022-11-30T00:32:38.687Z,10.54
2022-11-30T00:35:05.445Z,10.66
2022-11-30T00:37:31.840Z,10.59
2022-11-30T00:39:58.260Z,10.61
2022-11-30T00:42:24.637Z,10.45
2022-11-30T00:44:51.052Z,10.09
2022-11-30T00:47:17.592Z,10.35
2022-11-30T00:49:44.300Z,10.32
2022-11-30T00:52:10.694Z,10.57
2022-11-30T00:54:37.105Z,10.40
2022-11-30T00:57:03.503Z,10.21
2022-11-30T00:59:29.935Z,10.19
2022-11-30T01:01:56.539Z,10.23
2022-11-30T01:04:23.009Z,10.39
2022-11-30T01:06:49.537Z,10.35
2022-11-30T01:09:16.016Z,10.34
2022-11-30T01:11:42.488Z,10.53
2022-11-30T01:14:08.955Z,10.48
2022-11-30T01:16:35.335Z,10.47
2022-11-30T01:19:01.891Z,10.44
2022-11-30T01:21:29.224Z,10.17
2022-11-30T01:23:56.191Z,10.45
2022-11-30T01:26:23.336Z,10.36
2022-11-30T01:28:51.918Z,10.45
2022-11-30T01:31:18.914Z,10.30
2022-11-30T01:33:52.277Z,10.06
2022-11-30T01:36:21.428Z,10.06
2022-11-30T01:38:50.650Z,10.05
2022-11-30T01:41:23.327Z,10.20
2022-11-30T01:43:55.122Z,10.15
2022-11-30T01:46:24.544Z,9.97
2022-11-30T01:49:11.267Z,10.25
2022-11-30T01:51:44.060Z,10.15
2022-11-30T01:54:12.550Z,10.25
2022-11-30T01:56:42.500Z,10.37
2022-11-30T01:59:09.181Z,10.05
2022-11-30T02:01:35.697Z,10.13
2022-11-30T02:04:13.959Z,10.31
2022-11-30T02:06:40.462Z,10.11
2022-11-30T02:09:06.881Z,10.07
2022-11-30T02:11:33.675Z,9.97
2022-11-30T02:14:19.091Z,10.35
2022-11-30T02:17:11.973Z,10.29
2022-11-30T02:20:17.008Z,10.33
2022-11-30T02:23:07.974Z,10.25
2022-11-30T02:25:53.351Z,10.13
2022-11-30T02:28:41.267Z,10.32
2022-11-30T02:31:12.475Z,10.21
2022-11-30T02:33:39.161Z,10.35
2022-11-30T02:36:06.709Z,10.32
2022-11-30T02:38:33.424Z,10.38
2022-11-30T02:40:59.912Z,10.34
2022-11-30T02:43:28.400Z,10.12
2022-11-30T02:46:25.871Z,10.52
2022-11-30T02:48:52.247Z,10.43
2022-11-30T02:51:20.398Z,10.61
2022-11-30T02:53:47.488Z,10.15
2022-11-30T02:56:13.971Z,10.26
2022-11-30T02:58:40.901Z,10.27
2022-11-30T03:01:07.419Z,10.33
2022-11-30T03:03:33.855Z,10.18
2022-11-30T03:06:00.391Z,10.31
2022-11-30T03:08:26.856Z,10.30
2022-11-30T03:10:53.315Z,10.28
2022-11-30T03:13:19.726Z,10.18
2022-11-30T03:15:46.200Z,10.18
2022-11-30T03:18:14.011Z,10.14
2022-11-30T03:20:42.394Z,10.11
2022-11-30T03:23:08.986Z,10.15
2022-11-30T03:25:35.523Z,10.02
2022-11-30T03:28:02.577Z,9.97
2022-11-30T03:30:29.067Z,10.53
2022-11-30T03:32:55.523Z,10.24
2022-11-30T03:35:22.092Z,10.61
2022-11-30T03:37:48.648Z,10.38
2022-11-30T03:40:15.199Z,10.53
2022-11-30T03:42:41.630Z,10.29
2022-11-30T03:45:08.231Z,10.58
2022-11-30T03:47:34.663Z,10.59
2022-11-30T03:50:01.161Z,10.44
2022-11-30T03:52:27.843Z,10.49
2022-11-30T03:54:54.262Z,10.40
2022-11-30T03:57:20.666Z,10.59
2022-11-30T03:59:47.105Z,10.47
2022-11-30T04:02:13.616Z,10.41
2022-11-30T04:04:40.250Z,10.24
2022-11-30T04:07:06.641Z,10.43
2022-11-30T04:09:33.046Z,10.20
2022-11-30T04:11:59.607Z,10.39
2022-11-30T04:14:25.985Z,10.38
2022-11-30T04:16:52.376Z,10.51
2022-11-30T04:19:18.809Z,10.29
2022-11-30T04:21:45.259Z,10.25
2022-11-30T04:24:11.672Z,10.58
2022-11-30T04:26:38.327Z,10.33
2022-11-30T04:29:05.233Z,10.46
2022-11-30T04:31:31.732Z,10.67
2022-11-30T04:33:58.153Z,10.81
2022-11-30T04:36:24.913Z,10.51
2022-11-30T04:38:51.312Z,10.48
2022-11-30T04:41:17.890Z,10.62
2022-11-30T04:43:44.303Z,10.64
2022-11-30T04:46:10.824Z,10.72
2022-11-30T04:48:37.377Z,10.34
2022-11-30T04:51:06.038Z,10.50
2022-11-30T04:53:33.510Z,10.62
2022-11-30T04:56:04.830Z,10.77
2022-11-30T04:58:31.241Z,10.80
2022-11-30T05:00:58.027Z,10.76
2022-11-30T05:03:24.543Z,10.85
2022-11-30T05:05:50.963Z,10.73
2022-11-30T05:08:17.355Z,10.55
2022-11-30T05:10:45.044Z,10.10
2022-11-30T05:13:14.122Z,10.47
2022-11-30T05:15:40.524Z,10.71
2022-11-30T05:18:06.913Z,10.53
2022-11-30T05:20:33.487Z,10.02
2022-11-30T05:22:59.888Z,9.98
2022-11-30T05:25:26.329Z,10.06
2022-11-30T05:27:52.804Z,10.09
2022-11-30T05:30:19.343Z,9.78
2022-11-30T05:32:45.749Z,10.05
2022-11-30T05:35:12.111Z,9.62
2022-11-30T05:37:38.510Z,9.57
2022-11-30T05:40:05.650Z,9.50
2022-11-30T05:42:32.085Z,10.21
2022-11-30T05:44:58.474Z,9.34
2022-11-30T05:47:24.891Z,9.99
2022-11-30T05:49:51.333Z,9.78
2022-11-30T05:52:17.767Z,9.91
2022-11-30T05:54:44.368Z,9.75
2022-11-30T05:57:10.901Z,10.04
2022-11-30T05:59:37.312Z,10.02
2022-11-30T06:02:03.765Z,9.81
2022-11-30T06:04:30.382Z,9.93
2022-11-30T06:06:56.842Z,9.94
2022-11-30T06:09:23.668Z,10.28
2022-11-30T06:11:50.641Z,10.32
2022-11-30T06:14:17.229Z,10.26
2022-11-30T06:16:43.666Z,10.46
2022-11-30T06:19:10.070Z,10.38
2022-11-30T06:21:36.510Z,10.06
2022-11-30T06:24:03.017Z,10.03
2022-11-30T06:26:29.450Z,9.50
2022-11-30T06:28:55.881Z,9.27
2022-11-30T06:31:22.407Z,9.20
2022-11-30T06:33:48.879Z,9.33
2022-11-30T06:36:21.052Z,9.47
2022-11-30T06:38:47.567Z,9.89
2022-11-30T06:41:14.089Z,10.12
2022-11-30T06:43:40.760Z,10.15
2022-11-30T06:46:07.734Z,10.28
2022-11-30T06:48:35.477Z,10.25
2022-11-30T06:51:05.438Z,10.36
2022-11-30T06:53:32.040Z,10.23
2022-11-30T06:55:58.505Z,10.22
2022-11-30T06:58:25.113Z,10.21
2022-11-30T07:00:51.586Z,10.30
2022-11-30T07:03:18.082Z,10.32
2022-11-30T07:05:45.977Z,10.45
2022-11-30T07:08:14.078Z,10.27
2022-11-30T07:10:45.192Z,10.48
2022-11-30T07:13:12.660Z,9.92
2022-11-30T07:15:39.933Z,9.48
2022-11-30T07:18:06.513Z,9.76
2022-11-30T07:20:33.976Z,10.12
2022-11-30T07:23:23.336Z,9.81
2022-11-30T07:26:09.462Z,9.75
2022-11-30T07:28:38.556Z,9.66
2022-11-30T07:31:20.660Z,10.04
2022-11-30T07:33:48.046Z,10.18
2022-11-30T07:36:15.309Z,10.02
2022-11-30T07:38:41.860Z,9.96
2022-11-30T07:41:08.793Z,10.04
2022-11-30T07:43:35.648Z,9.92
2022-11-30T07:46:02.790Z,10.02
2022-11-30T07:48:29.486Z,10.05
2022-11-30T07:51:02.131Z,10.05
2022-11-30T07:53:28.650Z,9.64
2022-11-30T07:56:01.555Z,9.71
2022-11-30T07:58:28.711Z,9.96
2022-11-30T08:00:55.318Z,9.86
2022-11-30T08:03:21.965Z,10.01
2022-11-30T08:05:48.411Z,9.85
2022-11-30T08:08:14.825Z,9.91
2022-11-30T08:10:41.453Z,9.68
2022-11-30T08:13:08.055Z,9.91
2022-11-30T08:15:34.848Z,10.07
2022-11-30T08:18:05.682Z,10.03
2022-11-30T08:20:32.298Z,9.94
2022-11-30T08:22:58.847Z,10.01
2022-11-30T08:25:25.824Z,10.13
2022-11-30T08:27:52.424Z,10.16
2022-11-30T08:30:19.045Z,9.88
2022-11-30T08:32:45.800Z,10.13
2022-11-30T08:35:12.584Z,10.26
2022-11-30T08:37:39.149Z,10.38
2022-11-30T08:40:06.260Z,9.96
2022-11-30T08:42:32.719Z,9.70
2022-11-30T08:44:59.560Z,9.77
2022-11-30T08:47:26.391Z,9.65
2022-11-30T08:49:52.892Z,9.93
2022-11-30T08:52:19.451Z,9.79
2022-11-30T08:54:47.657Z,9.89
2022-11-30T08:57:15.702Z,9.78
2022-11-30T08:59:42.142Z,9.45
2022-11-30T09:02:10.820Z,9.70
2022-11-30T09:04:37.866Z,9.61
2022-11-30T09:07:04.447Z,9.50
2022-11-30T09:09:31.044Z,9.26
2022-11-30T09:11:57.728Z,9.59
2022-11-30T09:14:24.165Z,10.10
2022-11-30T09:16:50.612Z,10.31
2022-11-30T09:19:17.052Z,10.51
2022-11-30T09:21:49.784Z,10.43
2022-11-30T09:24:17.925Z,10.23
2022-11-30T09:26:44.414Z,9.98
2022-11-30T09:29:10.802Z,9.94
2022-11-30T09:31:37.372Z,10.12
2022-11-30T09:34:03.939Z,10.49
2022-11-30T09:36:30.959Z,10.47
2022-11-30T09:38:57.519Z,10.68
2022-11-30T09:41:45.481Z,10.68
2022-11-30T09:44:33.760Z,10.55
2022-11-30T09:47:27.562Z,10.71
2022-11-30T09:49:56.659Z,10.47
2022-11-30T09:52:37.587Z,10.56
2022-11-30T09:55:08.325Z,10.04
2022-11-30T09:57:45.301Z,9.99
2022-11-30T10:00:21.670Z,10.24
2022-11-30T10:02:53.303Z,10.42
2022-11-30T10:05:22.451Z,10.46
2022-11-30T10:08:01.244Z,10.31
2022-11-30T10:10:43.305Z,10.47
2022-11-30T10:13:23.144Z,10.57
2022-11-30T10:16:14.083Z,10.63
2022-11-30T10:19:05.719Z,10.58
2022-11-30T10:21:47.484Z,10.52
2022-11-30T10:24:34.253Z,10.40
2022-11-30T10:27:08.709Z,10.39
2022-11-30T10:29:37.675Z,10.43
2022-11-30T10:32:22.871Z,10.30
2022-11-30T10:34:54.105Z,10.21
2022-11-30T10:37:23.478Z,9.99
2022-11-30T10:40:00.402Z,9.66
2022-11-30T10:42:30.710Z,10.18
2022-11-30T10:45:04.084Z,10.35
2022-11-30T10:47:36.934Z,10.20
2022-11-30T10:50:05.186Z,9.90
2022-11-30T10:52:48.852Z,10.07
2022-11-30T10:55:19.493Z,10.16
2022-11-30T10:57:47.232Z,9.74
2022-11-30T11:00:15.301Z,9.99
2022-11-30T11:02:43.433Z,10.42
2022-11-30T11:05:16.173Z,10.57
2022-11-30T11:07:48.072Z,10.58
2022-11-30T11:10:40.625Z,10.68
2022-11-30T11:13:15.834Z,10.03
2022-11-30T11:15:56.323Z,9.85
2022-11-30T11:18:26.132Z,9.76
2022-11-30T11:21:19.294Z,9.80
2022-11-30T11:23:46.430Z,9.80
2022-11-30T11:26:18.151Z,9.85
2022-11-30T11:28:47.144Z,10.26
2022-11-30T11:31:36.725Z,10.27
2022-11-30T11:34:05.535Z,9.99
2022-11-30T11:36:34.344Z,9.90
2022-11-30T11:39:01.475Z,9.73
2022-11-30T11:41:33.980Z,9.48
2022-11-30T11:44:09.715Z,10.43
2022-11-30T11:46:38.799Z,10.23
2022-11-30T11:49:07.683Z,10.24
2022-11-30T11:51:37.114Z,10.35
2022-11-30T11:54:12.836Z,10.35
2022-11-30T11:56:39.523Z,10.39
2022-11-30T11:59:32.307Z,10.42
2022-11-30T12:02:03.211Z,10.36
2022-11-30T12:04:48.336Z,10.42
2022-11-30T12:07:22.970Z,10.37
2022-11-30T12:13:22.331Z,9.82
2022-11-30T12:16:10.599Z,10.11
2022-11-30T12:18:55.026Z,10.30
2022-11-30T12:21:30.438Z,10.27
2022-11-30T12:24:05.769Z,10.01
2022-11-30T12:26:39.900Z,10.03
2022-11-30T12:29:06.437Z,10.41
2022-11-30T12:31:58.642Z,10.34
2022-11-30T12:35:14.594Z,10.62
2022-11-30T12:37:47.899Z,10.12
2022-11-30T12:40:40.901Z,9.31
2022-11-30T12:43:15.679Z,9.34
2022-11-30T12:45:46.625Z,9.96
2022-11-30T12:48:56.562Z,9.86
2022-11-30T12:51:29.382Z,9.78
2022-11-30T12:54:22.791Z,9.55
2022-11-30T12:56:54.799Z,9.43
2022-11-30T12:59:28.011Z,9.52
2022-11-30T13:02:11.803Z,9.89
2022-11-30T13:04:40.992Z,10.30
2022-11-30T13:07:34.902Z,10.31
2022-11-30T13:10:22.722Z,10.65
2022-11-30T13:12:50.844Z,10.79
2022-11-30T13:15:22.971Z,10.64
2022-11-30T13:17:50.150Z,10.05
2022-11-30T13:20:19.593Z,10.17
2022-11-30T13:22:46.100Z,9.94
2022-11-30T13:25:18.784Z,9.92
2022-11-30T13:27:53.459Z,10.08
2022-11-30T13:30:44.363Z,10.17
2022-11-30T13:33:37.796Z,10.54
2022-11-30T13:36:22.843Z,10.47
2022-11-30T13:39:08.152Z,10.32
2022-11-30T13:41:35.092Z,10.08
2022-11-30T13:44:01.836Z,10.31
2022-11-30T13:46:28.700Z,10.23
2022-11-30T13:49:22.212Z,10.89
2022-11-30T13:52:07.044Z,10.24
2022-11-30T13:54:38.713Z,9.79
2022-11-30T13:57:27.156Z,9.74
2022-11-30T13:59:55.054Z,10.01
2022-11-30T14:02:54.064Z,10.09
2022-11-30T14:05:23.479Z,10.12
2022-11-30T14:07:49.894Z,10.26
2022-11-30T14:10:36.022Z,9.86
2022-11-30T14:13:29.037Z,10.12
2022-11-30T14:15:59.752Z,10.23
2022-11-30T14:18:41.201Z,10.36
2022-11-30T14:21:15.814Z,10.60
2022-11-30T14:24:01.042Z,10.54
2022-11-30T14:26:36.461Z,10.19
2022-11-30T14:29:09.050Z,10.21
2022-11-30T14:31:49.818Z,10.08
2022-11-30T14:34:22.314Z,10.20
2022-11-30T14:36:52.018Z,10.15
2022-11-30T14:39:26.415Z,9.73
2022-11-30T14:41:53.075Z,9.78
2022-11-30T14:44:19.849Z,10.05
2022-11-30T14:46:46.343Z,10.19
2022-11-30T14:49:21.266Z,10.30
2022-11-30T14:51:53.428Z,10.16
2022-11-30T14:54:32.237Z,10.34
2022-11-30T14:57:03.311Z,9.99
2022-11-30T14:59:37.838Z,9.98
2022-11-30T15:02:06.410Z,9.88
2022-11-30T15:04:36.030Z,9.89
2022-11-30T15:07:02.641Z,10.15
2022-11-30T15:09:31.606Z,10.10
2022-11-30T15:11:58.541Z,9.79
2022-11-30T15:14:24.993Z,9.99
2022-11-30T15:16:53.914Z,10.07
2022-11-30T15:19:29.557Z,10.13
2022-11-30T15:21:57.127Z,10.13
2022-11-30T15:24:24.237Z,9.71
2022-11-30T15:27:03.081Z,9.87
2022-11-30T15:29:37.092Z,9.98
2022-11-30T15:32:16.807Z,10.06
2022-11-30T15:34:56.039Z,9.88
2022-11-30T15:37:30.853Z,9.72
2022-11-30T15:39:58.695Z,9.71
2022-11-30T15:42:39.795Z,9.42
2022-11-30T15:45:22.911Z,9.72
2022-11-30T15:47:50.160Z,9.79
2022-11-30T15:50:31.660Z,9.68
2022-11-30T15:53:03.708Z,10.01
2022-11-30T15:55:47.996Z,9.64
2022-11-30T15:58:24.540Z,9.82
2022-11-30T16:01:12.362Z,9.81
2022-11-30T16:04:02.052Z,9.87
2022-11-30T16:06:29.731Z,10.07
2022-11-30T16:08:57.252Z,9.85
2022-11-30T16:11:23.813Z,9.44
2022-11-30T16:13:50.273Z,9.76
2022-11-30T16:16:20.221Z,10.01
2022-11-30T16:18:47.298Z,10.33
2022-11-30T16:21:17.943Z,10.21
2022-11-30T16:23:44.784Z,10.39
2022-11-30T16:29:05.590Z,10.12
2022-11-30T16:31:32.154Z,9.63
2022-11-30T16:33:58.773Z,10.08
2022-11-30T16:36:25.319Z,9.95
2022-11-30T16:38:52.952Z,10.14
2022-11-30T16:41:24.695Z,9.94
2022-11-30T16:43:52.496Z,9.93
2022-11-30T16:46:21.585Z,10.01
2022-11-30T16:48:48.781Z,10.04
2022-11-30T16:51:17.911Z,9.62
2022-11-30T16:53:45.744Z,9.54
2022-11-30T16:56:13.877Z,9.65
2022-11-30T16:58:40.580Z,9.43
2022-11-30T17:01:13.266Z,9.99
2022-11-30T17:03:40.080Z,9.81
2022-11-30T17:06:08.887Z,9.31
2022-11-30T17:08:35.812Z,9.62
2022-11-30T17:11:02.286Z,9.78
2022-11-30T17:13:28.691Z,9.61
2022-11-30T17:15:55.795Z,9.63
2022-11-30T17:18:22.214Z,9.82
2022-11-30T17:20:48.671Z,9.62
2022-11-30T17:23:15.054Z,9.96
2022-11-30T17:25:41.670Z,9.90
2022-11-30T17:28:08.124Z,10.06
2022-11-30T17:30:34.678Z,10.09
2022-11-30T17:33:01.173Z,10.30
2022-11-30T17:35:27.770Z,10.40
2022-11-30T17:37:54.479Z,10.36
2022-11-30T17:40:20.950Z,10.07
2022-11-30T17:42:47.456Z,10.03
2022-11-30T17:45:14.209Z,9.98
2022-11-30T17:47:40.629Z,9.92
2022-11-30T17:50:07.983Z,9.78
2022-11-30T17:52:34.522Z,10.09
2022-11-30T17:55:01.189Z,10.21
2022-11-30T17:57:27.755Z,9.97
2022-11-30T17:59:54.335Z,10.56
2022-11-30T18:02:21.060Z,10.33
2022-11-30T18:04:47.756Z,10.68
2022-11-30T18:07:15.530Z,10.34
2022-11-30T18:09:43.053Z,10.23
2022-11-30T18:12:10.729Z,10.26
2022-11-30T18:14:37.256Z,9.65
2022-11-30T18:17:03.713Z,9.53
2022-11-30T18:19:30.307Z,9.81
2022-11-30T18:21:56.872Z,10.04
2022-11-30T18:24:25.522Z,10.42
2022-11-30T18:26:52.619Z,10.05
2022-11-30T18:29:19.136Z,10.38
2022-11-30T18:31:48.176Z,10.41
2022-11-30T18:34:14.950Z,10.13
2022-11-30T18:36:41.537Z,10.24
2022-11-30T18:39:08.272Z,10.18
2022-11-30T18:41:34.759Z,10.11
2022-11-30T18:44:01.214Z,10.08
2022-11-30T18:46:28.275Z,9.66
2022-11-30T18:48:55.303Z,9.75
2022-11-30T18:51:25.160Z,10.01
2022-11-30T18:54:02.909Z,10.31
2022-11-30T18:56:31.987Z,10.64
2022-11-30T18:59:01.307Z,10.85
2022-11-30T19:01:28.680Z,10.31
2022-11-30T19:03:58.041Z,10.02
2022-11-30T19:06:28.045Z,9.87
2022-11-30T19:08:54.481Z,10.07
2022-11-30T19:11:20.937Z,9.96
2022-11-30T19:13:47.515Z,9.94
2022-11-30T19:16:16.376Z,9.87
2022-11-30T19:18:45.072Z,9.77
2022-11-30T19:21:13.977Z,9.83
2022-11-30T19:23:40.608Z,9.88
2022-11-30T19:26:08.211Z,9.89
2022-11-30T19:28:35.590Z,9.87
2022-11-30T19:31:07.272Z,9.47
2022-11-30T19:33:35.334Z,9.75
2022-11-30T19:36:03.023Z,9.41
2022-11-30T19:38:29.518Z,9.76
2022-11-30T19:40:57.409Z,9.28
2022-11-30T19:43:24.047Z,9.17
2022-11-30T19:45:50.801Z,9.31
2022-11-30T19:48:17.432Z,9.88
2022-11-30T19:50:43.877Z,10.02
2022-11-30T19:53:10.355Z,10.15
2022-11-30T19:55:40.384Z,10.20
2022-11-30T19:58:06.806Z,10.26
2022-11-30T20:00:33.341Z,10.26
2022-11-30T20:03:00.137Z,10.34
2022-11-30T20:05:26.615Z,10.40
2022-11-30T20:07:53.079Z,10.53
2022-11-30T20:10:19.496Z,10.62
2022-11-30T20:12:45.899Z,10.50
2022-11-30T20:15:12.449Z,10.34
2022-11-30T20:17:38.855Z,10.41
2022-11-30T20:20:06.228Z,10.31
2022-11-30T20:22:33.291Z,9.92
2022-11-30T20:24:59.688Z,10.10
2022-11-30T20:27:26.213Z,9.77
2022-11-30T20:29:52.704Z,9.77
2022-11-30T20:32:19.524Z,9.61
2022-11-30T20:34:46.232Z,9.92
2022-11-30T20:37:13.192Z,9.52
2022-11-30T20:39:45.714Z,9.16
2022-11-30T20:42:12.921Z,8.84
2022-11-30T20:44:39.345Z,9.79
2022-11-30T20:47:05.793Z,9.14
2022-11-30T20:49:32.293Z,9.49
2022-11-30T20:51:58.714Z,9.78
2022-11-30T20:54:25.159Z,9.59
2022-11-30T20:56:51.684Z,9.74
2022-11-30T20:59:23.629Z,9.76
2022-11-30T21:01:50.381Z,9.76
2022-11-30T21:04:16.892Z,9.47
2022-11-30T21:06:45.408Z,9.30
2022-11-30T21:09:13.657Z,9.89
2022-11-30T21:11:40.434Z,9.61
2022-11-30T21:14:07.186Z,10.12
2022-11-30T21:16:34.189Z,9.62
2022-11-30T21:19:01.335Z,10.25
2022-11-30T21:21:32.964Z,9.92
2022-11-30T21:24:00.951Z,9.99
2022-11-30T21:26:30.053Z,10.15
2022-11-30T21:29:00.700Z,10.11
2022-11-30T21:31:27.246Z,10.04
2022-11-30T21:33:54.086Z,10.22
2022-11-30T21:36:21.646Z,10.22
2022-11-30T21:38:48.133Z,10.06
2022-11-30T21:41:14.646Z,9.93
2022-11-30T21:43:41.564Z,9.92
2022-11-30T21:46:17.012Z,9.68
2022-11-30T21:48:45.877Z,9.51
2022-11-30T21:51:14.300Z,9.39
2022-11-30T21:53:42.700Z,9.74
2022-11-30T21:56:12.704Z,9.40
2022-11-30T21:58:40.540Z,10.03
2022-11-30T22:01:07.838Z,10.31
2022-11-30T22:03:34.378Z,9.64
2022-11-30T22:06:02.906Z,9.76
2022-11-30T22:08:29.901Z,9.62
2022-11-30T22:11:01.473Z,9.54
2022-11-30T22:13:29.376Z,9.24
2022-11-30T22:16:04.761Z,9.68
2022-11-30T22:18:31.511Z,9.74
2022-11-30T22:21:10.125Z,9.92
2022-11-30T22:23:38.803Z,9.88
2022-11-30T22:26:11.503Z,9.70
2022-11-30T22:28:38.569Z,9.50
2022-11-30T22:31:06.827Z,8.93
2022-11-30T22:33:34.563Z,8.80
2022-11-30T22:36:01.823Z,8.63
2022-11-30T22:38:29.357Z,8.98
2022-11-30T22:41:03.283Z,8.70
2022-11-30T22:43:29.898Z,8.57
2022-11-30T22:46:05.198Z,8.77
2022-11-30T22:48:31.825Z,8.85
2022-11-30T22:51:05.901Z,8.31
2022-11-30T22:53:36.232Z,8.51
2022-11-30T22:56:08.245Z,8.57
2022-11-30T22:58:34.825Z,8.94
2022-11-30T23:01:16.474Z,9.17
2022-11-30T23:03:44.514Z,9.16
2022-11-30T23:06:12.420Z,8.64
2022-11-30T23:08:39.132Z,8.56
2022-11-30T23:11:09.378Z,8.86
2022-11-30T23:13:36.367Z,8.61
2022-11-30T23:16:04.624Z,8.66
2022-11-30T23:18:37.115Z,8.85
2022-11-30T23:21:06.741Z,8.63
2022-11-30T23:23:33.235Z,8.38
2022-11-30T23:26:14.882Z,8.61
2022-11-30T23:28:42.776Z,9.22
2022-11-30T23:31:34.114Z,9.81
2022-11-30T23:34:02.399Z,9.42
2022-11-30T23:36:28.946Z,9.81
2022-11-30T23:38:58.247Z,9.74
2022-11-30T23:41:26.420Z,9.62
2022-11-30T23:43:53.332Z,9.44
2022-11-30T23:46:19.950Z,9.56
2022-11-30T23:48:47.060Z,9.55
2022-11-30T23:51:13.498Z,9.37
2022-11-30T23:53:40.048Z,9.47
2022-11-30T23:56:09.461Z,9.42
2022-11-30T23:58:35.869Z,8.90
